sensor_id;sensor_type;location;lat;lon;timestamp;P1;durP1;ratioP1;P2;durP2;ratioP2
45326;SDS011;31062;49.678;24.560;2022-11-15T00:01:17;15.02;;;10.45;;
45326;SDS011;31062;49.678;24.560;2022-11-15T00:04:22;20.73;;;11.57;;
45326;SDS011;31062;49.678;24.560;2022-11-15T00:07:26;16.45;;;12.00;;
45326;SDS011;31062;49.678;24.560;2022-11-15T00:10:54;18.85;;;11.35;;
45326;SDS011;31062;49.678;24.560;2022-11-15T00:13:59;14.18;;;10.35;;
45326;SDS011;31062;49.678;24.560;2022-11-15T00:17:06;22.27;;;11.95;;
45326;SDS011;31062;49.678;24.560;2022-11-15T00:20:10;18.33;;;12.75;;
45326;SDS011;31062;49.678;24.560;2022-11-15T00:23:15;18.75;;;12.13;;
45326;SDS011;31062;49.678;24.560;2022-11-15T00:26:20;20.23;;;12.82;;
45326;SDS011;31062;49.678;24.560;2022-11-15T00:29:24;16.90;;;11.43;;
45326;SDS011;31062;49.678;24.560;2022-11-15T00:32:32;15.70;;;11.80;;
45326;SDS011;31062;49.678;24.560;2022-11-15T00:35:36;18.90;;;11.43;;
45326;SDS011;31062;49.678;24.560;2022-11-15T00:38:40;16.42;;;11.88;;
45326;SDS011;31062;49.678;24.560;2022-11-15T00:41:45;18.88;;;13.05;;
45326;SDS011;31062;49.678;24.560;2022-11-15T00:44:49;17.15;;;11.15;;
45326;SDS011;31062;49.678;24.560;2022-11-15T00:47:53;19.38;;;11.90;;
45326;SDS011;31062;49.678;24.560;2022-11-15T00:50:57;19.75;;;12.48;;
45326;SDS011;31062;49.678;24.560;2022-11-15T00:54:02;17.48;;;12.25;;
45326;SDS011;31062;49.678;24.560;2022-11-15T00:57:06;16.23;;;12.40;;
45326;SDS011;31062;49.678;24.560;2022-11-15T01:00:11;19.17;;;13.05;;
45326;SDS011;31062;49.678;24.560;2022-11-15T01:03:15;15.52;;;10.90;;
45326;SDS011;31062;49.678;24.560;2022-11-15T01:06:19;19.70;;;12.27;;
45326;SDS011;31062;49.678;24.560;2022-11-15T01:09:24;20.42;;;13.75;;
45326;SDS011;31062;49.678;24.560;2022-11-15T01:12:28;23.65;;;13.13;;
45326;SDS011;31062;49.678;24.560;2022-11-15T01:15:32;23.67;;;12.75;;
45326;SDS011;31062;49.678;24.560;2022-11-15T01:18:37;20.00;;;13.18;;
45326;SDS011;31062;49.678;24.560;2022-11-15T01:21:41;16.05;;;12.15;;
45326;SDS011;31062;49.678;24.560;2022-11-15T01:24:45;15.82;;;12.55;;
45326;SDS011;31062;49.678;24.560;2022-11-15T01:27:50;18.25;;;12.90;;
45326;SDS011;31062;49.678;24.560;2022-11-15T01:30:57;21.42;;;13.23;;
45326;SDS011;31062;49.678;24.560;2022-11-15T01:34:02;21.25;;;12.77;;
45326;SDS011;31062;49.678;24.560;2022-11-15T01:37:06;20.30;;;12.48;;
45326;SDS011;31062;49.678;24.560;2022-11-15T01:40:10;19.48;;;13.27;;
45326;SDS011;31062;49.678;24.560;2022-11-15T01:43:22;27.52;;;12.35;;
45326;SDS011;31062;49.678;24.560;2022-11-15T01:46:32;19.10;;;13.05;;
45326;SDS011;31062;49.678;24.560;2022-11-15T01:49:40;28.90;;;13.85;;
45326;SDS011;31062;49.678;24.560;2022-11-15T01:52:50;19.13;;;13.10;;
45326;SDS011;31062;49.678;24.560;2022-11-15T01:55:55;18.33;;;12.90;;
45326;SDS011;31062;49.678;24.560;2022-11-15T01:59:00;20.60;;;12.90;;
45326;SDS011;31062;49.678;24.560;2022-11-15T02:02:08;19.83;;;11.88;;
45326;SDS011;31062;49.678;24.560;2022-11-15T02:05:12;20.98;;;13.73;;
45326;SDS011;31062;49.678;24.560;2022-11-15T02:08:16;19.48;;;13.13;;
45326;SDS011;31062;49.678;24.560;2022-11-15T02:11:24;21.75;;;15.07;;
45326;SDS011;31062;49.678;24.560;2022-11-15T02:14:28;22.05;;;13.93;;
45326;SDS011;31062;49.678;24.560;2022-11-15T02:17:45;19.92;;;13.18;;
45326;SDS011;31062;49.678;24.560;2022-11-15T02:27:59;17.98;;;12.27;;
45326;SDS011;31062;49.678;24.560;2022-11-15T02:35:02;21.20;;;13.23;;
45326;SDS011;31062;49.678;24.560;2022-11-15T02:38:21;24.77;;;13.75;;
45326;SDS011;31062;49.678;24.560;2022-11-15T02:44:45;21.20;;;12.85;;
45326;SDS011;31062;49.678;24.560;2022-11-15T02:47:50;28.58;;;15.07;;
45326;SDS011;31062;49.678;24.560;2022-11-15T02:50:58;22.90;;;12.50;;
45326;SDS011;31062;49.678;24.560;2022-11-15T02:54:04;22.75;;;12.82;;
45326;SDS011;31062;49.678;24.560;2022-11-15T02:57:13;23.02;;;12.82;;
45326;SDS011;31062;49.678;24.560;2022-11-15T03:00:22;25.45;;;13.70;;
45326;SDS011;31062;49.678;24.560;2022-11-15T03:07:00;34.20;;;14.40;;
45326;SDS011;31062;49.678;24.560;2022-11-15T03:10:19;25.92;;;13.43;;
45326;SDS011;31062;49.678;24.560;2022-11-15T03:13:32;28.70;;;13.68;;
45326;SDS011;31062;49.678;24.560;2022-11-15T03:20:14;26.42;;;14.18;;
45326;SDS011;31062;49.678;24.560;2022-11-15T03:23:21;25.48;;;13.82;;
45326;SDS011;31062;49.678;24.560;2022-11-15T03:26:25;26.30;;;15.18;;
45326;SDS011;31062;49.678;24.560;2022-11-15T03:29:36;24.33;;;13.77;;
45326;SDS011;31062;49.678;24.560;2022-11-15T03:32:46;27.15;;;14.52;;
45326;SDS011;31062;49.678;24.560;2022-11-15T03:35:53;31.73;;;14.82;;
45326;SDS011;31062;49.678;24.560;2022-11-15T03:38:59;32.13;;;15.80;;
45326;SDS011;31062;49.678;24.560;2022-11-15T03:42:14;28.27;;;16.33;;
45326;SDS011;31062;49.678;24.560;2022-11-15T03:45:27;37.38;;;16.13;;
45326;SDS011;31062;49.678;24.560;2022-11-15T03:48:47;30.17;;;14.90;;
45326;SDS011;31062;49.678;24.560;2022-11-15T03:51:58;34.83;;;16.63;;
45326;SDS011;31062;49.678;24.560;2022-11-15T03:55:03;30.65;;;16.35;;
45326;SDS011;31062;49.678;24.560;2022-11-15T03:58:09;32.50;;;17.13;;
45326;SDS011;31062;49.678;24.560;2022-11-15T04:01:14;34.88;;;18.15;;
45326;SDS011;31062;49.678;24.560;2022-11-15T04:04:18;32.45;;;18.00;;
45326;SDS011;31062;49.678;24.560;2022-11-15T04:07:23;37.85;;;18.65;;
45326;SDS011;31062;49.678;24.560;2022-11-15T04:10:28;40.45;;;17.90;;
45326;SDS011;31062;49.678;24.560;2022-11-15T04:13:32;42.88;;;18.35;;
45326;SDS011;31062;49.678;24.560;2022-11-15T04:16:36;43.22;;;18.45;;
45326;SDS011;31062;49.678;24.560;2022-11-15T04:19:46;36.70;;;18.60;;
45326;SDS011;31062;49.678;24.560;2022-11-15T04:23:13;35.83;;;17.33;;
45326;SDS011;31062;49.678;24.560;2022-11-15T04:26:36;34.90;;;16.70;;
45326;SDS011;31062;49.678;24.560;2022-11-15T04:29:40;32.88;;;16.35;;
45326;SDS011;31062;49.678;24.560;2022-11-15T04:32:45;34.20;;;17.75;;
45326;SDS011;31062;49.678;24.560;2022-11-15T04:35:49;35.05;;;18.50;;
45326;SDS011;31062;49.678;24.560;2022-11-15T04:42:16;38.00;;;17.23;;
45326;SDS011;31062;49.678;24.560;2022-11-15T04:45:20;46.05;;;19.15;;
45326;SDS011;31062;49.678;24.560;2022-11-15T04:48:24;40.85;;;17.38;;
45326;SDS011;31062;49.678;24.560;2022-11-15T04:51:29;45.20;;;17.65;;
45326;SDS011;31062;49.678;24.560;2022-11-15T04:54:33;42.95;;;17.83;;
45326;SDS011;31062;49.678;24.560;2022-11-15T04:57:37;54.42;;;20.50;;
45326;SDS011;31062;49.678;24.560;2022-11-15T05:00:42;56.63;;;18.67;;
45326;SDS011;31062;49.678;24.560;2022-11-15T05:03:46;53.13;;;20.27;;
45326;SDS011;31062;49.678;24.560;2022-11-15T05:07:09;52.28;;;20.23;;
45326;SDS011;31062;49.678;24.560;2022-11-15T05:10:13;61.90;;;20.98;;
45326;SDS011;31062;49.678;24.560;2022-11-15T05:13:18;47.83;;;17.90;;
45326;SDS011;31062;49.678;24.560;2022-11-15T05:16:22;51.67;;;20.13;;
45326;SDS011;31062;49.678;24.560;2022-11-15T05:19:26;59.45;;;21.65;;
45326;SDS011;31062;49.678;24.560;2022-11-15T05:22:31;47.65;;;19.30;;
45326;SDS011;31062;49.678;24.560;2022-11-15T05:25:35;57.45;;;19.35;;
45326;SDS011;31062;49.678;24.560;2022-11-15T05:28:40;56.35;;;22.50;;
45326;SDS011;31062;49.678;24.560;2022-11-15T05:31:44;62.22;;;24.75;;
45326;SDS011;31062;49.678;24.560;2022-11-15T05:34:48;61.80;;;23.58;;
45326;SDS011;31062;49.678;24.560;2022-11-15T05:37:52;54.05;;;20.27;;
45326;SDS011;31062;49.678;24.560;2022-11-15T05:40:57;39.08;;;16.65;;
45326;SDS011;31062;49.678;24.560;2022-11-15T05:44:02;61.20;;;19.73;;
45326;SDS011;31062;49.678;24.560;2022-11-15T05:47:11;60.10;;;19.85;;
45326;SDS011;31062;49.678;24.560;2022-11-15T05:50:21;52.92;;;19.38;;
45326;SDS011;31062;49.678;24.560;2022-11-15T05:53:25;52.20;;;21.38;;
45326;SDS011;31062;49.678;24.560;2022-11-15T05:56:30;64.13;;;20.45;;
45326;SDS011;31062;49.678;24.560;2022-11-15T05:59:34;54.80;;;20.48;;
45326;SDS011;31062;49.678;24.560;2022-11-15T06:02:41;67.45;;;22.05;;
45326;SDS011;31062;49.678;24.560;2022-11-15T06:05:46;59.08;;;20.73;;
45326;SDS011;31062;49.678;24.560;2022-11-15T06:08:50;63.92;;;20.30;;
45326;SDS011;31062;49.678;24.560;2022-11-15T06:11:54;63.85;;;21.73;;
45326;SDS011;31062;49.678;24.560;2022-11-15T06:14:59;58.65;;;21.33;;
45326;SDS011;31062;49.678;24.560;2022-11-15T06:18:03;43.58;;;16.85;;
45326;SDS011;31062;49.678;24.560;2022-11-15T06:21:07;56.92;;;20.23;;
45326;SDS011;31062;49.678;24.560;2022-11-15T06:24:12;54.47;;;19.90;;
45326;SDS011;31062;49.678;24.560;2022-11-15T06:27:16;52.78;;;20.08;;
45326;SDS011;31062;49.678;24.560;2022-11-15T06:30:21;59.97;;;18.08;;
45326;SDS011;31062;49.678;24.560;2022-11-15T06:33:26;52.25;;;17.35;;
45326;SDS011;31062;49.678;24.560;2022-11-15T06:36:30;53.47;;;17.63;;
45326;SDS011;31062;49.678;24.560;2022-11-15T06:39:37;55.00;;;16.73;;
45326;SDS011;31062;49.678;24.560;2022-11-15T06:42:41;57.17;;;19.55;;
45326;SDS011;31062;49.678;24.560;2022-11-15T06:45:46;51.67;;;20.42;;
45326;SDS011;31062;49.678;24.560;2022-11-15T06:48:51;63.50;;;17.45;;
45326;SDS011;31062;49.678;24.560;2022-11-15T06:51:56;58.05;;;20.15;;
45326;SDS011;31062;49.678;24.560;2022-11-15T06:55:00;60.15;;;21.20;;
45326;SDS011;31062;49.678;24.560;2022-11-15T06:58:04;63.65;;;19.13;;
45326;SDS011;31062;49.678;24.560;2022-11-15T07:01:09;61.65;;;20.48;;
45326;SDS011;31062;49.678;24.560;2022-11-15T07:04:15;54.70;;;19.05;;
45326;SDS011;31062;49.678;24.560;2022-11-15T07:07:20;54.47;;;19.63;;
45326;SDS011;31062;49.678;24.560;2022-11-15T07:10:25;60.95;;;20.05;;
45326;SDS011;31062;49.678;24.560;2022-11-15T07:13:29;59.03;;;19.25;;
45326;SDS011;31062;49.678;24.560;2022-11-15T07:16:38;62.67;;;20.38;;
45326;SDS011;31062;49.678;24.560;2022-11-15T07:19:43;64.20;;;20.40;;
45326;SDS011;31062;49.678;24.560;2022-11-15T07:22:47;62.13;;;21.48;;
45326;SDS011;31062;49.678;24.560;2022-11-15T07:25:52;52.65;;;19.17;;
45326;SDS011;31062;49.678;24.560;2022-11-15T07:28:56;69.70;;;20.83;;
45326;SDS011;31062;49.678;24.560;2022-11-15T07:32:01;70.93;;;24.13;;
45326;SDS011;31062;49.678;24.560;2022-11-15T07:35:06;67.70;;;23.60;;
45326;SDS011;31062;49.678;24.560;2022-11-15T07:38:10;51.55;;;21.35;;
45326;SDS011;31062;49.678;24.560;2022-11-15T07:41:14;57.13;;;20.08;;
45326;SDS011;31062;49.678;24.560;2022-11-15T07:44:19;54.45;;;17.98;;
45326;SDS011;31062;49.678;24.560;2022-11-15T07:47:23;53.72;;;18.92;;
45326;SDS011;31062;49.678;24.560;2022-11-15T07:50:27;50.38;;;18.98;;
45326;SDS011;31062;49.678;24.560;2022-11-15T07:53:34;52.55;;;20.02;;
45326;SDS011;31062;49.678;24.560;2022-11-15T07:56:39;65.15;;;20.55;;
45326;SDS011;31062;49.678;24.560;2022-11-15T07:59:43;62.50;;;21.38;;
45326;SDS011;31062;49.678;24.560;2022-11-15T08:02:47;62.75;;;22.92;;
45326;SDS011;31062;49.678;24.560;2022-11-15T08:05:52;78.80;;;21.73;;
45326;SDS011;31062;49.678;24.560;2022-11-15T08:08:56;65.45;;;20.75;;
45326;SDS011;31062;49.678;24.560;2022-11-15T08:12:01;66.97;;;22.92;;
45326;SDS011;31062;49.678;24.560;2022-11-15T08:15:05;59.70;;;21.98;;
45326;SDS011;31062;49.678;24.560;2022-11-15T08:18:11;62.97;;;24.40;;
45326;SDS011;31062;49.678;24.560;2022-11-15T08:21:18;90.60;;;26.05;;
45326;SDS011;31062;49.678;24.560;2022-11-15T08:24:24;94.93;;;26.77;;
45326;SDS011;31062;49.678;24.560;2022-11-15T08:27:28;67.00;;;22.90;;
45326;SDS011;31062;49.678;24.560;2022-11-15T08:30:34;52.53;;;19.35;;
45326;SDS011;31062;49.678;24.560;2022-11-15T08:33:41;56.05;;;21.08;;
45326;SDS011;31062;49.678;24.560;2022-11-15T08:36:45;68.57;;;21.88;;
45326;SDS011;31062;49.678;24.560;2022-11-15T08:39:50;77.80;;;25.65;;
45326;SDS011;31062;49.678;24.560;2022-11-15T08:42:54;77.93;;;24.05;;
45326;SDS011;31062;49.678;24.560;2022-11-15T08:45:59;68.45;;;22.52;;
45326;SDS011;31062;49.678;24.560;2022-11-15T08:49:03;72.05;;;23.10;;
45326;SDS011;31062;49.678;24.560;2022-11-15T08:52:07;71.38;;;23.55;;
45326;SDS011;31062;49.678;24.560;2022-11-15T08:55:12;72.15;;;21.67;;
45326;SDS011;31062;49.678;24.560;2022-11-15T08:58:18;66.85;;;22.67;;
45326;SDS011;31062;49.678;24.560;2022-11-15T09:01:23;50.53;;;19.23;;
45326;SDS011;31062;49.678;24.560;2022-11-15T09:04:28;56.13;;;22.00;;
45326;SDS011;31062;49.678;24.560;2022-11-15T09:07:32;79.03;;;24.25;;
45326;SDS011;31062;49.678;24.560;2022-11-15T09:10:37;57.30;;;21.15;;
45326;SDS011;31062;49.678;24.560;2022-11-15T09:13:41;67.57;;;21.05;;
45326;SDS011;31062;49.678;24.560;2022-11-15T09:16:46;60.70;;;20.73;;
45326;SDS011;31062;49.678;24.560;2022-11-15T09:19:50;61.40;;;20.08;;
45326;SDS011;31062;49.678;24.560;2022-11-15T09:22:59;69.45;;;22.23;;
45326;SDS011;31062;49.678;24.560;2022-11-15T09:26:05;63.30;;;20.90;;
45326;SDS011;31062;49.678;24.560;2022-11-15T09:29:09;59.97;;;20.42;;
45326;SDS011;31062;49.678;24.560;2022-11-15T09:32:14;59.92;;;19.45;;
45326;SDS011;31062;49.678;24.560;2022-11-15T09:35:19;51.13;;;17.90;;
45326;SDS011;31062;49.678;24.560;2022-11-15T09:38:23;62.15;;;20.95;;
45326;SDS011;31062;49.678;24.560;2022-11-15T09:45:28;50.75;;;18.98;;
45326;SDS011;31062;49.678;24.560;2022-11-15T09:51:49;70.90;;;19.98;;
45326;SDS011;31062;49.678;24.560;2022-11-15T09:54:39;59.72;;;17.92;;
45326;SDS011;31062;49.678;24.560;2022-11-15T09:58:03;66.95;;;19.13;;
45326;SDS011;31062;49.678;24.560;2022-11-15T10:01:02;55.78;;;20.30;;
45326;SDS011;31062;49.678;24.560;2022-11-15T10:04:00;64.82;;;18.15;;
45326;SDS011;31062;49.678;24.560;2022-11-15T10:07:01;56.22;;;18.15;;
45326;SDS011;31062;49.678;24.560;2022-11-15T10:09:56;70.30;;;21.73;;
45326;SDS011;31062;49.678;24.560;2022-11-15T10:12:48;65.32;;;19.88;;
45326;SDS011;31062;49.678;24.560;2022-11-15T10:15:37;50.58;;;18.48;;
45326;SDS011;31062;49.678;24.560;2022-11-15T10:18:35;58.95;;;20.63;;
45326;SDS011;31062;49.678;24.560;2022-11-15T10:24:34;57.03;;;17.38;;
45326;SDS011;31062;49.678;24.560;2022-11-15T10:27:23;50.03;;;18.35;;
45326;SDS011;31062;49.678;24.560;2022-11-15T10:30:13;55.95;;;17.73;;
45326;SDS011;31062;49.678;24.560;2022-11-15T10:33:12;71.22;;;20.20;;
45326;SDS011;31062;49.678;24.560;2022-11-15T10:38:58;50.28;;;19.23;;
45326;SDS011;31062;49.678;24.560;2022-11-15T10:41:44;52.13;;;20.02;;
45326;SDS011;31062;49.678;24.560;2022-11-15T10:44:29;60.30;;;19.95;;
45326;SDS011;31062;49.678;24.560;2022-11-15T10:47:26;49.80;;;18.35;;
45326;SDS011;31062;49.678;24.560;2022-11-15T10:50:29;48.95;;;17.85;;
45326;SDS011;31062;49.678;24.560;2022-11-15T10:56:28;43.60;;;18.58;;
45326;SDS011;31062;49.678;24.560;2022-11-15T10:59:15;53.00;;;18.55;;
45326;SDS011;31062;49.678;24.560;2022-11-15T11:05:27;45.92;;;14.55;;
45326;SDS011;31062;49.678;24.560;2022-11-15T11:10:58;51.47;;;18.23;;
45326;SDS011;31062;49.678;24.560;2022-11-15T11:13:47;46.35;;;19.38;;
45326;SDS011;31062;49.678;24.560;2022-11-15T11:16:36;51.97;;;20.02;;
45326;SDS011;31062;49.678;24.560;2022-11-15T11:25:39;53.10;;;22.73;;
45326;SDS011;31062;49.678;24.560;2022-11-15T11:31:51;49.22;;;18.95;;
45326;SDS011;31062;49.678;24.560;2022-11-15T11:34:43;47.95;;;18.58;;
45326;SDS011;31062;49.678;24.560;2022-11-15T11:37:43;44.22;;;18.27;;
45326;SDS011;31062;49.678;24.560;2022-11-15T11:40:42;41.92;;;16.88;;
45326;SDS011;31062;49.678;24.560;2022-11-15T11:49:43;42.00;;;16.40;;
45326;SDS011;31062;49.678;24.560;2022-11-15T11:52:33;60.67;;;18.15;;
45326;SDS011;31062;49.678;24.560;2022-11-15T11:55:29;51.03;;;17.50;;
45326;SDS011;31062;49.678;24.560;2022-11-15T11:58:28;60.28;;;17.17;;
45326;SDS011;31062;49.678;24.560;2022-11-15T12:01:24;45.40;;;17.02;;
45326;SDS011;31062;49.678;24.560;2022-11-15T12:07:07;54.28;;;16.20;;
45326;SDS011;31062;49.678;24.560;2022-11-15T12:10:15;49.08;;;15.50;;
45326;SDS011;31062;49.678;24.560;2022-11-15T12:13:18;51.25;;;17.73;;
45326;SDS011;31062;49.678;24.560;2022-11-15T12:16:12;48.08;;;16.30;;
45326;SDS011;31062;49.678;24.560;2022-11-15T12:19:10;44.63;;;15.45;;
45326;SDS011;31062;49.678;24.560;2022-11-15T12:25:28;40.00;;;14.90;;
45326;SDS011;31062;49.678;24.560;2022-11-15T12:31:52;41.63;;;16.27;;
45326;SDS011;31062;49.678;24.560;2022-11-15T12:34:45;73.35;;;28.48;;
45326;SDS011;31062;49.678;24.560;2022-11-15T12:40:26;42.72;;;17.95;;
45326;SDS011;31062;49.678;24.560;2022-11-15T12:46:01;37.25;;;16.27;;
45326;SDS011;31062;49.678;24.560;2022-11-15T12:48:54;41.97;;;16.67;;
45326;SDS011;31062;49.678;24.560;2022-11-15T13:03:16;49.45;;;16.63;;
45326;SDS011;31062;49.678;24.560;2022-11-15T13:06:05;44.83;;;17.30;;
45326;SDS011;31062;49.678;24.560;2022-11-15T13:08:52;45.78;;;15.30;;
45326;SDS011;31062;49.678;24.560;2022-11-15T13:17:32;37.38;;;15.02;;
45326;SDS011;31062;49.678;24.560;2022-11-15T13:20:20;65.32;;;31.27;;
45326;SDS011;31062;49.678;24.560;2022-11-15T13:23:10;45.08;;;19.02;;
45326;SDS011;31062;49.678;24.560;2022-11-15T13:29:02;42.40;;;17.13;;
45326;SDS011;31062;49.678;24.560;2022-11-15T13:31:48;33.70;;;14.90;;
45326;SDS011;31062;49.678;24.560;2022-11-15T13:34:34;32.53;;;14.00;;
45326;SDS011;31062;49.678;24.560;2022-11-15T13:37:37;31.00;;;13.55;;
45326;SDS011;31062;49.678;24.560;2022-11-15T13:40:29;42.30;;;15.77;;
45326;SDS011;31062;49.678;24.560;2022-11-15T13:43:34;49.25;;;14.80;;
45326;SDS011;31062;49.678;24.560;2022-11-15T13:46:28;35.08;;;14.52;;
45326;SDS011;31062;49.678;24.560;2022-11-15T13:49:14;49.53;;;17.05;;
45326;SDS011;31062;49.678;24.560;2022-11-15T13:52:02;43.30;;;17.80;;
45326;SDS011;31062;49.678;24.560;2022-11-15T13:55:02;37.33;;;17.40;;
45326;SDS011;31062;49.678;24.560;2022-11-15T13:57:54;46.33;;;18.50;;
45326;SDS011;31062;49.678;24.560;2022-11-15T14:00:46;46.92;;;17.65;;
45326;SDS011;31062;49.678;24.560;2022-11-15T14:03:34;55.55;;;20.25;;
45326;SDS011;31062;49.678;24.560;2022-11-15T14:06:24;49.00;;;18.30;;
45326;SDS011;31062;49.678;24.560;2022-11-15T14:09:29;53.88;;;20.35;;
45326;SDS011;31062;49.678;24.560;2022-11-15T14:21:28;49.97;;;18.70;;
45326;SDS011;31062;49.678;24.560;2022-11-15T14:24:18;50.80;;;21.10;;
45326;SDS011;31062;49.678;24.560;2022-11-15T14:27:25;47.97;;;21.13;;
45326;SDS011;31062;49.678;24.560;2022-11-15T14:30:16;45.65;;;18.30;;
45326;SDS011;31062;49.678;24.560;2022-11-15T14:33:11;46.20;;;19.55;;
45326;SDS011;31062;49.678;24.560;2022-11-15T14:39:03;51.72;;;20.38;;
45326;SDS011;31062;49.678;24.560;2022-11-15T14:41:50;68.45;;;23.13;;
45326;SDS011;31062;49.678;24.560;2022-11-15T14:44:36;53.50;;;24.30;;
45326;SDS011;31062;49.678;24.560;2022-11-15T14:47:24;58.55;;;25.42;;
45326;SDS011;31062;49.678;24.560;2022-11-15T14:52:59;57.63;;;22.55;;
45326;SDS011;31062;49.678;24.560;2022-11-15T14:55:45;65.03;;;24.70;;
45326;SDS011;31062;49.678;24.560;2022-11-15T14:58:30;69.60;;;26.38;;
45326;SDS011;31062;49.678;24.560;2022-11-15T15:01:25;45.58;;;20.92;;
45326;SDS011;31062;49.678;24.560;2022-11-15T15:04:11;44.38;;;18.65;;
45326;SDS011;31062;49.678;24.560;2022-11-15T15:06:57;38.10;;;17.73;;
45326;SDS011;31062;49.678;24.560;2022-11-15T15:09:42;51.20;;;17.88;;
45326;SDS011;31062;49.678;24.560;2022-11-15T17:20:44;75.25;;;38.22;;
45326;SDS011;31062;49.678;24.560;2022-11-15T17:23:30;90.57;;;40.80;;
45326;SDS011;31062;49.678;24.560;2022-11-15T17:26:17;78.93;;;36.08;;
45326;SDS011;31062;49.678;24.560;2022-11-15T17:29:23;64.32;;;30.10;;
45326;SDS011;31062;49.678;24.560;2022-11-15T17:32:11;65.68;;;33.00;;
45326;SDS011;31062;49.678;24.560;2022-11-15T17:34:56;59.47;;;30.60;;
45326;SDS011;31062;49.678;24.560;2022-11-15T17:37:42;66.93;;;31.15;;
45326;SDS011;31062;49.678;24.560;2022-11-15T17:40:28;65.93;;;28.58;;
45326;SDS011;31062;49.678;24.560;2022-11-15T17:43:14;55.90;;;27.17;;
45326;SDS011;31062;49.678;24.560;2022-11-15T17:46:03;54.35;;;25.88;;
45326;SDS011;31062;49.678;24.560;2022-11-15T17:48:50;55.92;;;24.98;;
45326;SDS011;31062;49.678;24.560;2022-11-15T17:51:36;56.08;;;25.55;;
45326;SDS011;31062;49.678;24.560;2022-11-15T17:54:21;56.75;;;27.67;;
45326;SDS011;31062;49.678;24.560;2022-11-15T17:57:06;65.72;;;28.55;;
45326;SDS011;31062;49.678;24.560;2022-11-15T17:59:52;67.75;;;30.40;;
45326;SDS011;31062;49.678;24.560;2022-11-15T18:02:37;60.28;;;28.77;;
45326;SDS011;31062;49.678;24.560;2022-11-15T18:05:23;68.63;;;28.33;;
45326;SDS011;31062;49.678;24.560;2022-11-15T18:08:09;66.32;;;30.20;;
45326;SDS011;31062;49.678;24.560;2022-11-15T18:13:54;69.13;;;32.30;;
45326;SDS011;31062;49.678;24.560;2022-11-15T18:16:41;60.65;;;27.85;;
45326;SDS011;31062;49.678;24.560;2022-11-15T18:19:27;53.88;;;27.15;;
45326;SDS011;31062;49.678;24.560;2022-11-15T18:22:12;48.25;;;22.67;;
45326;SDS011;31062;49.678;24.560;2022-11-15T18:24:58;50.80;;;22.38;;
45326;SDS011;31062;49.678;24.560;2022-11-15T18:27:43;47.40;;;22.00;;
45326;SDS011;31062;49.678;24.560;2022-11-15T18:30:29;45.45;;;20.98;;
45326;SDS011;31062;49.678;24.560;2022-11-15T18:33:15;40.28;;;18.95;;
45326;SDS011;31062;49.678;24.560;2022-11-15T18:36:01;43.88;;;21.05;;
45326;SDS011;31062;49.678;24.560;2022-11-15T18:38:52;48.28;;;23.98;;
45326;SDS011;31062;49.678;24.560;2022-11-15T18:41:42;46.95;;;21.73;;
45326;SDS011;31062;49.678;24.560;2022-11-15T18:44:31;49.33;;;21.13;;
45326;SDS011;31062;49.678;24.560;2022-11-15T18:47:16;50.33;;;23.70;;
45326;SDS011;31062;49.678;24.560;2022-11-15T18:50:02;56.97;;;26.02;;
45326;SDS011;31062;49.678;24.560;2022-11-15T18:52:47;63.33;;;26.23;;
45326;SDS011;31062;49.678;24.560;2022-11-15T18:55:33;54.70;;;26.05;;
45326;SDS011;31062;49.678;24.560;2022-11-15T18:58:18;62.63;;;25.92;;
45326;SDS011;31062;49.678;24.560;2022-11-15T19:01:04;53.90;;;24.80;;
45326;SDS011;31062;49.678;24.560;2022-11-15T19:03:52;51.05;;;24.45;;
45326;SDS011;31062;49.678;24.560;2022-11-15T19:06:41;55.60;;;26.05;;
45326;SDS011;31062;49.678;24.560;2022-11-15T19:09:28;46.90;;;23.48;;
45326;SDS011;31062;49.678;24.560;2022-11-15T19:12:17;47.38;;;23.67;;
45326;SDS011;31062;49.678;24.560;2022-11-15T19:15:02;52.00;;;23.45;;
45326;SDS011;31062;49.678;24.560;2022-11-15T19:17:54;51.10;;;21.90;;
45326;SDS011;31062;49.678;24.560;2022-11-15T19:20:39;47.72;;;22.70;;
45326;SDS011;31062;49.678;24.560;2022-11-15T19:23:25;58.03;;;26.88;;
45326;SDS011;31062;49.678;24.560;2022-11-15T19:26:11;56.22;;;27.88;;
45326;SDS011;31062;49.678;24.560;2022-11-15T19:28:59;60.80;;;29.08;;
45326;SDS011;31062;49.678;24.560;2022-11-15T19:31:46;66.15;;;30.08;;
45326;SDS011;31062;49.678;24.560;2022-11-15T19:34:33;70.97;;;34.42;;
45326;SDS011;31062;49.678;24.560;2022-11-15T19:37:18;74.57;;;33.92;;
45326;SDS011;31062;49.678;24.560;2022-11-15T19:40:04;70.22;;;32.53;;
45326;SDS011;31062;49.678;24.560;2022-11-15T19:42:50;69.40;;;30.98;;
45326;SDS011;31062;49.678;24.560;2022-11-15T19:45:35;96.55;;;42.33;;
45326;SDS011;31062;49.678;24.560;2022-11-15T19:48:21;137.07;;;53.65;;
45326;SDS011;31062;49.678;24.560;2022-11-15T19:51:26;131.43;;;53.35;;
45326;SDS011;31062;49.678;24.560;2022-11-15T19:54:15;101.18;;;41.72;;
45326;SDS011;31062;49.678;24.560;2022-11-15T19:57:04;77.97;;;32.67;;
45326;SDS011;31062;49.678;24.560;2022-11-15T19:59:51;108.32;;;40.38;;
45326;SDS011;31062;49.678;24.560;2022-11-15T20:02:36;84.32;;;37.08;;
45326;SDS011;31062;49.678;24.560;2022-11-15T20:05:22;72.70;;;32.72;;
45326;SDS011;31062;49.678;24.560;2022-11-15T20:08:08;87.40;;;37.03;;
45326;SDS011;31062;49.678;24.560;2022-11-15T20:10:54;92.47;;;41.30;;
45326;SDS011;31062;49.678;24.560;2022-11-15T20:13:39;86.22;;;41.60;;
45326;SDS011;31062;49.678;24.560;2022-11-15T20:16:26;71.72;;;33.17;;
45326;SDS011;31062;49.678;24.560;2022-11-15T20:19:12;71.13;;;32.72;;
45326;SDS011;31062;49.678;24.560;2022-11-15T20:21:59;54.30;;;28.45;;
45326;SDS011;31062;49.678;24.560;2022-11-15T20:24:45;51.00;;;25.40;;
45326;SDS011;31062;49.678;24.560;2022-11-15T20:27:30;52.22;;;25.70;;
45326;SDS011;31062;49.678;24.560;2022-11-15T20:30:16;53.78;;;23.08;;
45326;SDS011;31062;49.678;24.560;2022-11-15T20:33:02;47.42;;;22.17;;
45326;SDS011;31062;49.678;24.560;2022-11-15T20:35:48;39.33;;;21.00;;
45326;SDS011;31062;49.678;24.560;2022-11-15T20:38:34;51.03;;;22.27;;
45326;SDS011;31062;49.678;24.560;2022-11-15T20:41:19;49.22;;;22.60;;
45326;SDS011;31062;49.678;24.560;2022-11-15T20:44:05;55.72;;;22.50;;
45326;SDS011;31062;49.678;24.560;2022-11-15T20:46:50;59.60;;;25.58;;
45326;SDS011;31062;49.678;24.560;2022-11-15T20:49:36;70.47;;;32.17;;
45326;SDS011;31062;49.678;24.560;2022-11-15T20:52:21;73.68;;;34.75;;
45326;SDS011;31062;49.678;24.560;2022-11-15T20:55:06;65.07;;;30.67;;
45326;SDS011;31062;49.678;24.560;2022-11-15T20:57:53;65.00;;;29.67;;
45326;SDS011;31062;49.678;24.560;2022-11-15T21:00:38;63.97;;;29.02;;
45326;SDS011;31062;49.678;24.560;2022-11-15T21:03:26;53.70;;;26.35;;
45326;SDS011;31062;49.678;24.560;2022-11-15T21:06:13;61.33;;;28.38;;
45326;SDS011;31062;49.678;24.560;2022-11-15T21:09:19;63.72;;;29.67;;
45326;SDS011;31062;49.678;24.560;2022-11-15T21:12:23;66.72;;;31.08;;